createdAt,value
2022-08-08T00:00:50.279Z,68.42
2022-08-08T00:02:31.171Z,68.64
2022-08-08T00:05:09.734Z,68.81
2022-08-08T00:07:49.571Z,68.47
2022-08-08T00:10:28.469Z,68.75
2022-08-08T00:13:10.110Z,69.11
2022-08-08T00:15:57.511Z,69.00
2022-08-08T00:18:37.054Z,68.98
2022-08-08T00:21:16.597Z,69.53
2022-08-08T00:23:52.668Z,69.74
2022-08-08T00:26:29.382Z,69.70
2022-08-08T00:29:08.350Z,69.63
2022-08-08T00:32:33.009Z,69.61
2022-08-08T00:35:20.071Z,69.97
2022-08-08T00:38:31.448Z,70.39
2022-08-08T00:41:54.613Z,70.37
2022-08-08T00:45:03.984Z,70.46
2022-08-08T00:48:38.947Z,70.23
2022-08-08T00:51:43.386Z,70.31
2022-08-08T00:55:03.115Z,70.61
2022-08-08T00:58:19.680Z,70.48
2022-08-08T01:01:03.608Z,70.26
2022-08-08T01:04:29.874Z,70.57
2022-08-08T01:07:55.325Z,70.48
2022-08-08T01:10:52.517Z,71.07
2022-08-08T01:13:58.718Z,71.30
2022-08-08T01:17:17.650Z,71.35
2022-08-08T01:20:34.491Z,71.32
2022-08-08T01:24:02.785Z,71.70
2022-08-08T01:26:48.131Z,71.77
2022-08-08T01:32:06.265Z,71.97
2022-08-08T01:34:44.019Z,71.98
2022-08-08T01:38:05.914Z,71.90
2022-08-08T01:41:00.264Z,71.98
2022-08-08T01:43:50.933Z,72.26
2022-08-08T01:46:47.307Z,72.59
2022-08-08T01:49:43.709Z,72.69
2022-08-08T01:53:04.036Z,73.25
2022-08-08T01:56:27.351Z,73.20
2022-08-08T01:58:46.472Z,73.21
2022-08-08T02:02:00.575Z,73.32
2022-08-08T02:04:43.730Z,73.32
2022-08-08T02:07:24.781Z,73.41
2022-08-08T02:10:30.167Z,73.43
2022-08-08T02:13:53.739Z,73.49
2022-08-08T02:16:20.654Z,73.58
2022-08-08T02:18:59.814Z,74.12
2022-08-08T02:22:10.180Z,74.34
2022-08-08T02:24:57.027Z,74.50
2022-08-08T02:27:42.595Z,74.77
2022-08-08T02:30:27.989Z,74.85
2022-08-08T02:34:00.187Z,75.02
2022-08-08T02:36:46.621Z,75.30
2022-08-08T02:39:58.528Z,75.07
2022-08-08T02:44:35.329Z,75.43
2022-08-08T02:46:28.561Z,75.78
2022-08-08T02:49:51.077Z,76.03
2022-08-08T02:53:01.076Z,75.59
2022-08-08T02:56:36.245Z,75.73
2022-08-08T02:59:57.174Z,75.77
2022-08-08T03:03:46.229Z,75.74
2022-08-08T03:06:56.818Z,76.20
2022-08-08T03:10:04.631Z,76.46
2022-08-08T03:15:53.443Z,76.52
2022-08-08T03:16:35.315Z,76.29
2022-08-08T03:19:51.180Z,76.31
2022-08-08T03:22:38.564Z,76.35
2022-08-08T03:25:18.457Z,76.46
2022-08-08T03:27:58.880Z,76.44
2022-08-08T03:30:35.376Z,76.73
2022-08-08T03:33:56.988Z,77.19
2022-08-08T03:36:19.736Z,77.15
2022-08-08T03:39:07.497Z,77.55
2022-08-08T03:42:27.537Z,78.04
2022-08-08T03:44:44.949Z,78.25
2022-08-08T03:47:25.911Z,78.25
2022-08-08T03:50:24.855Z,78.36
2022-08-08T03:53:02.763Z,78.27
2022-08-08T03:55:56.512Z,78.75
2022-08-08T03:58:37.578Z,78.96
2022-08-08T04:01:23.166Z,78.93
2022-08-08T04:03:59.107Z,78.94
2022-08-08T04:06:34.166Z,79.21
2022-08-08T04:09:11.950Z,79.49
2022-08-08T04:11:58.810Z,79.62
2022-08-08T04:14:45.943Z,79.64
2022-08-08T04:17:46.157Z,79.84
2022-08-08T04:20:14.594Z,79.91
2022-08-08T04:22:49.627Z,79.84
2022-08-08T04:25:29.888Z,79.76
2022-08-08T04:28:35.861Z,79.98
2022-08-08T04:30:57.563Z,80.03
2022-08-08T04:33:30.158Z,80.02
2022-08-08T04:36:14.437Z,79.92
2022-08-08T04:38:47.003Z,79.89
2022-08-08T04:41:21.438Z,79.83
2022-08-08T04:43:57.236Z,79.94
2022-08-08T04:46:31.033Z,80.05
2022-08-08T04:49:03.575Z,79.91
2022-08-08T04:51:48.565Z,79.92
2022-08-08T04:54:38.978Z,79.93
2022-08-08T04:57:13.820Z,79.87
2022-08-08T04:59:46.724Z,79.69
2022-08-08T05:02:31.168Z,79.84
2022-08-08T05:05:03.709Z,79.78
2022-08-08T05:07:42.872Z,79.64
2022-08-08T05:10:18.997Z,79.53
2022-08-08T05:13:00.312Z,79.51
2022-08-08T05:16:51.735Z,79.34
2022-08-08T05:18:27.614Z,79.36
2022-08-08T05:20:59.971Z,79.42
2022-08-08T05:23:41.145Z,79.48
2022-08-08T05:26:19.792Z,79.27
2022-08-08T05:28:57.595Z,78.94
2022-08-08T05:32:03.783Z,78.79
2022-08-08T05:34:45.986Z,78.31
2022-08-08T05:37:39.030Z,78.28
2022-08-08T05:40:17.860Z,78.08
2022-08-08T05:42:56.171Z,77.99
2022-08-08T05:45:41.493Z,78.00
2022-08-08T05:48:28.812Z,77.89
2022-08-08T05:51:13.557Z,77.79
2022-08-08T05:54:25.841Z,77.96
2022-08-08T05:56:47.599Z,77.95
2022-08-08T05:59:59.261Z,77.69
2022-08-08T06:02:43.537Z,77.36
2022-08-08T06:05:35.234Z,77.20
2022-08-08T06:08:28.301Z,76.96
2022-08-08T06:11:08.814Z,76.40
2022-08-08T06:13:49.377Z,76.26
2022-08-08T06:16:30.196Z,76.04
2022-08-08T06:19:24.077Z,75.58
2022-08-08T06:21:57.986Z,75.57
2022-08-08T06:24:51.160Z,75.38
2022-08-08T06:27:38.845Z,75.47
2022-08-08T06:30:26.121Z,75.56
2022-08-08T06:33:04.571Z,74.73
2022-08-08T06:36:06.466Z,74.01
2022-08-08T06:38:47.335Z,73.21
2022-08-08T06:41:23.953Z,73.26
2022-08-08T06:44:08.346Z,72.08
2022-08-08T06:46:50.865Z,71.67
2022-08-08T06:49:55.703Z,70.79
2022-08-08T06:55:46.868Z,69.64
2022-08-08T06:58:30.244Z,69.12
2022-08-08T07:01:24.379Z,68.71
2022-08-08T07:04:36.856Z,68.12
2022-08-08T07:07:01.027Z,69.16
2022-08-08T07:09:56.559Z,69.50
2022-08-08T07:12:40.164Z,69.62
2022-08-08T07:15:31.971Z,69.19
2022-08-08T07:18:35.188Z,69.10
2022-08-08T07:21:09.923Z,68.90
2022-08-08T07:24:05.137Z,68.66
2022-08-08T07:26:55.127Z,68.95
2022-08-08T07:30:00.999Z,68.69
2022-08-08T07:32:24.461Z,68.20
2022-08-08T07:35:01.330Z,68.33
2022-08-08T07:38:04.651Z,68.15
2022-08-08T07:40:45.368Z,67.12
2022-08-08T07:43:32.272Z,65.81
2022-08-08T07:46:23.716Z,65.34
2022-08-08T07:48:58.718Z,65.54
2022-08-08T07:51:45.497Z,65.48
2022-08-08T08:01:27.140Z,61.34
2022-08-08T08:04:25.749Z,61.09
2022-08-08T08:06:59.721Z,61.25
2022-08-08T08:09:40.056Z,60.88
2022-08-08T08:12:31.635Z,61.30
2022-08-08T08:15:15.162Z,61.43
2022-08-08T08:17:55.813Z,60.79
2022-08-08T08:20:30.931Z,59.13
2022-08-08T08:23:06.064Z,58.11
2022-08-08T08:25:46.003Z,57.68
2022-08-08T08:28:26.015Z,56.78
2022-08-08T08:31:04.961Z,56.96
2022-08-08T08:33:39.268Z,56.20
2022-08-08T08:36:19.922Z,55.49
2022-08-08T08:38:55.686Z,54.99
2022-08-08T08:41:36.069Z,55.65
2022-08-08T08:44:13.842Z,55.60
2022-08-08T08:46:51.060Z,54.61
2022-08-08T08:49:33.921Z,53.88
2022-08-08T08:52:10.096Z,53.36
2022-08-08T08:54:43.211Z,54.23
2022-08-08T08:57:17.630Z,53.95
2022-08-08T09:00:00.093Z,52.56
2022-08-08T09:02:41.194Z,52.13
2022-08-08T09:05:29.086Z,51.70
2022-08-08T09:08:12.751Z,51.37
2022-08-08T09:10:50.963Z,49.86
2022-08-08T09:13:27.967Z,49.31
2022-08-08T09:16:03.672Z,48.90
2022-08-08T09:18:39.348Z,47.79
2022-08-08T09:22:02.440Z,46.71
2022-08-08T09:24:08.063Z,46.53
2022-08-08T09:26:53.818Z,46.43
2022-08-08T09:29:28.548Z,46.83
2022-08-08T09:32:12.114Z,46.57
2022-08-08T09:34:57.918Z,47.34
2022-08-08T09:37:58.865Z,47.05
2022-08-08T09:40:43.950Z,46.04
2022-08-08T09:44:05.062Z,45.02
2022-08-08T09:46:30.638Z,45.98
2022-08-08T09:49:17.874Z,45.74
2022-08-08T09:52:06.317Z,44.55
2022-08-08T09:54:45.647Z,42.82
2022-08-08T09:57:29.166Z,43.78
2022-08-08T10:00:35.862Z,43.80
2022-08-08T10:03:06.225Z,43.72
2022-08-08T10:05:39.777Z,43.07
2022-08-08T10:08:12.501Z,43.40
2022-08-08T10:10:51.299Z,43.44
2022-08-08T10:13:32.468Z,42.60
2022-08-08T10:16:09.188Z,43.24
2022-08-08T10:18:41.146Z,43.65
2022-08-08T10:21:22.850Z,42.39
2022-08-08T10:24:28.269Z,42.94
2022-08-08T10:27:03.333Z,43.18
2022-08-08T10:30:00.323Z,44.16
2022-08-08T10:32:48.809Z,43.75
2022-08-08T10:36:08.539Z,42.71
2022-08-08T10:38:21.017Z,42.76
2022-08-08T10:40:55.151Z,43.41
2022-08-08T10:43:38.273Z,43.12
2022-08-08T10:50:00.041Z,42.81
2022-08-08T10:52:30.844Z,42.96
2022-08-08T10:55:07.008Z,42.54
2022-08-08T10:57:50.309Z,43.59
2022-08-08T11:00:29.028Z,42.72
2022-08-08T11:03:15.519Z,42.60
2022-08-08T11:05:51.767Z,42.62
2022-08-08T11:08:40.959Z,43.41
2022-08-08T11:11:59.773Z,42.54
2022-08-08T11:14:07.893Z,42.42
2022-08-08T11:16:47.296Z,42.07
2022-08-08T11:19:25.681Z,41.61
2022-08-08T11:21:58.692Z,41.91
2022-08-08T11:24:31.864Z,42.16
2022-08-08T11:27:19.118Z,41.50
2022-08-08T11:30:20.559Z,41.54
2022-08-08T11:32:50.476Z,41.39
2022-08-08T11:35:37.456Z,41.26
2022-08-08T11:38:36.754Z,41.97
2022-08-08T11:41:07.444Z,42.99
2022-08-08T11:43:42.665Z,43.05
2022-08-08T11:46:18.358Z,42.35
2022-08-08T11:48:52.423Z,42.39
2022-08-08T11:51:37.934Z,42.43
2022-08-08T11:54:31.768Z,40.79
2022-08-08T11:57:17.441Z,40.96
2022-08-08T12:00:00.650Z,41.15
2022-08-08T12:02:54.839Z,41.45
2022-08-08T12:05:36.935Z,41.03
2022-08-08T12:08:08.952Z,40.63
2022-08-08T12:10:50.993Z,41.61
2022-08-08T12:13:37.819Z,41.54
2022-08-08T12:16:20.810Z,41.32
2022-08-08T12:19:11.516Z,41.82
2022-08-08T12:22:00.086Z,41.56
2022-08-08T12:24:53.815Z,40.47
2022-08-08T12:27:45.194Z,40.19
2022-08-08T12:30:21.666Z,40.30
2022-08-08T12:33:02.421Z,40.43
2022-08-08T12:35:52.475Z,40.30
2022-08-08T12:38:30.536Z,40.67
2022-08-08T12:41:24.468Z,40.03
2022-08-08T12:44:32.253Z,38.91
2022-08-08T12:47:08.242Z,39.76
2022-08-08T12:49:55.161Z,40.14
2022-08-08T12:52:31.846Z,39.27
2022-08-08T12:55:09.259Z,40.93
2022-08-08T12:57:49.570Z,42.81
2022-08-08T13:00:34.033Z,42.66
2022-08-08T13:03:11.098Z,42.92
2022-08-08T13:06:03.641Z,42.54
2022-08-08T13:08:53.806Z,42.24
2022-08-08T13:12:19.725Z,41.87
2022-08-08T13:14:53.008Z,41.05
2022-08-08T13:18:09.441Z,39.56
2022-08-08T13:20:27.467Z,38.97
2022-08-08T13:23:31.135Z,40.41
2022-08-08T13:26:04.252Z,39.33
2022-08-08T13:28:45.554Z,38.86
2022-08-08T13:31:17.996Z,38.42
2022-08-08T13:33:50.956Z,39.81
2022-08-08T13:36:26.832Z,39.19
2022-08-08T13:39:00.284Z,39.04
2022-08-08T13:41:37.626Z,39.10
2022-08-08T13:44:12.329Z,39.36
2022-08-08T13:46:56.532Z,39.11
2022-08-08T13:50:36.586Z,39.62
2022-08-08T13:52:37.698Z,39.17
2022-08-08T13:55:11.684Z,38.55
2022-08-08T13:58:08.074Z,38.36
2022-08-08T14:00:45.356Z,38.37
2022-08-08T14:03:53.848Z,38.28
2022-08-08T14:06:32.958Z,38.87
2022-08-08T14:09:25.344Z,39.22
2022-08-08T14:12:02.582Z,39.76
2022-08-08T14:14:44.901Z,38.72
2022-08-08T14:17:36.361Z,38.48
2022-08-08T14:20:25.107Z,39.20
2022-08-08T14:23:21.381Z,39.71
2022-08-08T14:26:11.423Z,40.54
2022-08-08T14:28:53.113Z,41.93
2022-08-08T14:32:05.638Z,40.50
2022-08-08T14:34:19.422Z,39.61
2022-08-08T14:36:55.474Z,39.16
2022-08-08T14:39:48.224Z,40.05
2022-08-08T14:42:35.301Z,38.80
2022-08-08T14:45:10.418Z,38.82
2022-08-08T14:47:57.828Z,38.28
2022-08-08T14:50:39.368Z,38.91
2022-08-08T14:53:23.972Z,40.26
2022-08-08T14:56:02.210Z,40.14
2022-08-08T14:58:36.599Z,40.58
2022-08-08T15:01:23.194Z,39.20
2022-08-08T15:04:08.169Z,37.90
2022-08-08T15:06:42.670Z,38.60
2022-08-08T15:09:19.572Z,39.92
2022-08-08T15:11:54.561Z,40.76
2022-08-08T15:14:27.022Z,41.67
2022-08-08T15:16:58.970Z,40.84
2022-08-08T15:19:34.900Z,39.53
2022-08-08T15:22:09.936Z,38.99
2022-08-08T15:24:43.537Z,38.34
2022-08-08T15:28:04.953Z,38.67
2022-08-08T15:30:15.602Z,39.30
2022-08-08T15:32:51.197Z,38.59
2022-08-08T15:35:23.180Z,39.39
2022-08-08T15:37:59.887Z,40.53
2022-08-08T15:40:31.909Z,39.25
2022-08-08T15:43:03.936Z,39.49
2022-08-08T15:45:55.522Z,39.65
2022-08-08T15:48:27.529Z,39.24
2022-08-08T15:51:03.175Z,39.48
2022-08-08T15:53:49.160Z,38.90
2022-08-08T15:56:25.037Z,38.76
2022-08-08T15:58:57.320Z,39.17
2022-08-08T16:01:40.656Z,39.30
2022-08-08T16:04:21.021Z,39.32
2022-08-08T16:07:01.980Z,39.67
2022-08-08T16:13:08.886Z,39.55
2022-08-08T16:13:09.723Z,39.77
2022-08-08T16:15:17.745Z,40.29
2022-08-08T16:18:06.556Z,40.73
2022-08-08T16:20:41.480Z,40.65
2022-08-08T16:23:14.101Z,40.77
2022-08-08T16:25:53.706Z,41.34
2022-08-08T16:28:35.241Z,41.59
2022-08-08T16:31:09.352Z,41.72
2022-08-08T16:33:41.404Z,41.97
2022-08-08T16:36:33.687Z,42.05
2022-08-08T16:39:09.812Z,41.84
2022-08-08T16:41:53.149Z,41.90
2022-08-08T16:44:28.003Z,42.01
2022-08-08T16:47:40.006Z,42.62
2022-08-08T16:50:16.822Z,41.95
2022-08-08T16:55:03.546Z,42.13
2022-08-08T16:55:55.956Z,42.40
2022-08-08T16:58:34.388Z,42.34
2022-08-08T17:01:12.849Z,42.93
2022-08-08T17:04:01.173Z,42.94
2022-08-08T17:06:43.536Z,42.97
2022-08-08T17:09:23.087Z,43.08
2022-08-08T17:11:59.495Z,43.28
2022-08-08T17:14:35.283Z,43.12
2022-08-08T17:17:41.626Z,43.38
2022-08-08T17:20:01.383Z,43.27
2022-08-08T17:22:42.159Z,43.70
2022-08-08T17:25:15.009Z,43.76
2022-08-08T17:27:49.801Z,43.61
2022-08-08T17:30:29.148Z,43.98
2022-08-08T17:34:53.766Z,44.25
2022-08-08T17:36:10.057Z,44.38
2022-08-08T17:38:45.872Z,44.61
2022-08-08T17:41:17.707Z,44.86
2022-08-08T17:44:04.706Z,45.24
2022-08-08T17:46:38.778Z,45.20
2022-08-08T17:49:12.544Z,45.55
2022-08-08T17:51:51.557Z,45.75
2022-08-08T17:54:28.878Z,46.15
2022-08-08T17:57:02.413Z,46.56
2022-08-08T17:59:36.315Z,46.94
2022-08-08T18:02:21.219Z,47.34
2022-08-08T18:05:04.701Z,47.68
2022-08-08T18:08:03.129Z,47.81
2022-08-08T18:10:31.279Z,48.19
2022-08-08T18:13:04.245Z,48.52
2022-08-08T18:15:39.477Z,48.68
2022-08-08T18:18:29.239Z,49.00
2022-08-08T18:21:10.547Z,49.18
2022-08-08T18:23:52.737Z,49.26
2022-08-08T18:26:29.100Z,49.57
2022-08-08T18:29:01.611Z,49.38
2022-08-08T18:31:33.718Z,49.62
2022-08-08T18:34:25.202Z,49.48
2022-08-08T18:36:58.434Z,49.82
2022-08-08T18:39:36.293Z,49.65
2022-08-08T18:42:14.414Z,49.68
2022-08-08T18:44:54.799Z,49.95
2022-08-08T18:47:52.397Z,49.99
2022-08-08T18:51:53.230Z,50.03
2022-08-08T18:54:05.720Z,50.18
2022-08-08T19:07:33.549Z,49.83
2022-08-08T19:10:14.583Z,49.89
2022-08-08T19:12:53.107Z,49.94
2022-08-08T19:19:09.694Z,50.22
2022-08-08T19:21:49.501Z,50.70
2022-08-08T19:24:42.211Z,50.85
2022-08-08T19:27:14.922Z,51.03
2022-08-08T19:29:46.867Z,51.02
2022-08-08T19:32:23.185Z,51.06
2022-08-08T19:34:57.425Z,51.26
2022-08-08T19:37:42.040Z,51.48
2022-08-08T19:40:30.982Z,51.72
2022-08-08T19:43:04.686Z,51.83
2022-08-08T19:45:59.671Z,52.13
2022-08-08T19:48:33.615Z,51.95
2022-08-08T19:51:05.867Z,52.48
2022-08-08T19:53:51.069Z,52.55
2022-08-08T19:56:25.765Z,52.85
2022-08-08T19:59:18.860Z,52.99
2022-08-08T20:02:03.073Z,53.38
2022-08-08T20:04:36.749Z,53.33
2022-08-08T20:08:27.247Z,53.37
2022-08-08T20:10:04.000Z,53.56
2022-08-08T20:12:39.513Z,53.65
2022-08-08T20:15:59.878Z,53.78
2022-08-08T20:18:29.489Z,53.87
2022-08-08T20:34:27.260Z,53.15
2022-08-08T20:36:48.895Z,53.03
2022-08-08T20:39:18.985Z,53.17
2022-08-08T20:41:52.333Z,53.45
2022-08-08T20:44:21.216Z,53.35
2022-08-08T20:47:23.584Z,53.14
2022-08-08T20:49:54.555Z,53.81
2022-08-08T20:52:27.859Z,53.80
2022-08-08T20:54:56.969Z,54.10
2022-08-08T20:57:27.054Z,54.38
2022-08-08T20:59:57.069Z,54.53
2022-08-08T21:02:28.087Z,54.35
2022-08-08T21:05:00.893Z,54.51
2022-08-08T21:08:07.908Z,54.48
2022-08-08T21:10:21.363Z,54.70
2022-08-08T21:12:56.782Z,55.09
2022-08-08T21:16:04.770Z,55.17
2022-08-08T21:18:14.699Z,55.25
2022-08-08T21:20:43.166Z,55.16
2022-08-08T21:23:19.523Z,55.39
2022-08-08T21:25:54.829Z,55.42
2022-08-08T21:28:35.850Z,55.72
2022-08-08T21:31:22.776Z,55.59
2022-08-08T21:33:52.370Z,55.74
2022-08-08T21:36:28.473Z,55.84
2022-08-08T21:38:58.267Z,55.85
2022-08-08T21:41:38.068Z,55.99
2022-08-08T21:44:12.832Z,56.11
2022-08-08T21:48:21.280Z,56.28
2022-08-08T21:49:31.276Z,56.54
2022-08-08T21:54:17.717Z,56.67
2022-08-08T21:55:01.372Z,56.83
2022-08-08T21:57:42.939Z,56.94
2022-08-08T22:00:26.227Z,56.96
2022-08-08T22:02:55.016Z,56.86
2022-08-08T22:05:23.599Z,57.00
2022-08-08T22:07:52.274Z,57.11
2022-08-08T22:10:32.621Z,57.14
2022-08-08T22:13:18.547Z,57.23
2022-08-08T22:15:59.024Z,57.62
2022-08-08T22:18:32.440Z,57.50
2022-08-08T22:21:14.342Z,57.48
2022-08-08T22:23:50.675Z,57.55
2022-08-08T22:26:29.316Z,57.72
2022-08-08T22:29:13.963Z,57.83
2022-08-08T22:31:58.686Z,57.75
2022-08-08T22:34:39.034Z,57.88
2022-08-08T22:37:14.979Z,57.87
2022-08-08T22:40:00.974Z,57.88
2022-08-08T22:42:31.671Z,58.04
2022-08-08T22:45:00.968Z,58.12
2022-08-08T22:47:34.446Z,58.12
2022-08-08T22:50:25.434Z,58.18
2022-08-08T22:53:00.299Z,58.22
2022-08-08T22:55:57.959Z,58.63
2022-08-08T22:58:31.000Z,58.41
2022-08-08T23:01:00.883Z,58.43
2022-08-08T23:03:52.912Z,58.58
2022-08-08T23:06:17.815Z,58.75
2022-08-08T23:08:54.626Z,58.83
2022-08-08T23:11:30.887Z,58.92
2022-08-08T23:14:16.191Z,58.99
2022-08-08T23:16:47.215Z,59.09
2022-08-08T23:19:23.082Z,59.25
2022-08-08T23:21:51.526Z,59.23
2022-08-08T23:24:22.281Z,59.50
2022-08-08T23:26:55.329Z,59.45
2022-08-08T23:29:26.472Z,59.54
2022-08-08T23:31:58.449Z,59.66
2022-08-08T23:34:29.376Z,59.65
2022-08-08T23:37:00.656Z,59.67
2022-08-08T23:39:42.147Z,59.93
2022-08-08T23:42:21.860Z,60.26
2022-08-08T23:44:51.917Z,60.28
2022-08-08T23:49:01.956Z,60.34
2022-08-08T23:50:30.061Z,60.44
2022-08-08T23:53:03.704Z,60.60
2022-08-08T23:55:41.985Z,60.67
2022-08-08T23:58:32.121Z,60.79
